EGNTEGNC

Guest
Details From EGNT - Newcastle
To EGNC - Carlisle
Flight Number -
Tags Generated
Created
Modified
Stats Distance 39 nm / 71 km
Max Altitude 0 ft / 0 m
Waypoints 2
Social Downloads 6
Likes 0
Share VATSIM

Download

Looking for another format? Having issues loading an existing format? Contact us
Advertisement - Login to hide

Notes

Generated

Route

EGNT EGNC

ID Type Via Altitude Latitude Longitude Leg Dist Tot Dist Heading (true) Name
O EGNT APT - 0 ft / 0 m 55.03353˚ -1.70634˚ - 0 nm - -
O EGNC APT - 0 ft / 0 m 54.93500˚ -2.81139˚ 38 nm 38 nm 262° / 261° Carlisle

Altitude Profile

Advertisement - Login to hide

EGNT

Details ICAO EGNT (NCL)
Name Newcastle
Region United Kingdom
Timezone Europe/London (UTC+0.0)
Stats Elevation 266 ft / 81 m (AMSL)
Location 55.037922° -1.689833°
Runways 1
Magnetic Variation 1.479° W

METAR

EGNT 121020Z VRB02KT CAVOK 01/M01 Q1003

Decode

TAF

TAF EGNT 120502Z 1206/1306 29006KT 9999 FEW030 BECMG 1215/1218 21012KT TEMPO 1218/1222 7000 RA BKN009

Decode

Departure Runways

ID Width Length Bearing (true) Bearing (mag) Surface Threshold Offset Overrun Length
07 151 ft / 46 m 7,621 ft / 2,323 m 65.13° 66.61° Asphalt 394 ft / 120 m 108 ft / 33 m
25 151 ft / 46 m 7,621 ft / 2,323 m 245.16° 246.64° Asphalt 446 ft / 136 m 56 ft / 17 m

EGNC

Details ICAO EGNC (CAX)
Name Carlisle
Region United Kingdom
Timezone Europe/London (UTC+0.0)
Stats Elevation 190 ft / 58 m (AMSL)
Location 54.938323° -2.810132°
Runways 2
Magnetic Variation 1.909° W

METAR

EGNC 121020Z VRB02KT 9999 FEW030 M02/M02 Q1004

Decode

TAF

Not found

Destination Runways

ID Width Length Bearing (true) Bearing (mag) Surface Threshold Offset Overrun Length
01 75 ft / 23 m 3,045 ft / 928 m 1.13° 3.04° Asphalt 0 ft / 0 m 0 ft / 0 m
07 98 ft / 30 m 5,969 ft / 1,819 m 59.39° 61.30° Asphalt 1,493 ft / 455 m 0 ft / 0 m
19 75 ft / 23 m 3,045 ft / 928 m 181.13° 183.04° Asphalt 420 ft / 128 m 0 ft / 0 m
25 98 ft / 30 m 5,969 ft / 1,819 m 239.41° 241.32° Asphalt 781 ft / 238 m 0 ft / 0 m

Popular Alternatives